sensor_id;sensor_type;location;lat;lon;timestamp;pressure;altitude;pressure_sealevel;temperature;humidity
74936;BME280;63501;55.570;37.488;2023-12-14T00:02:17;99473.50;;;23.71;20.27
74936;BME280;63501;55.570;37.488;2023-12-14T00:04:44;99467.84;;;23.71;20.28
74936;BME280;63501;55.570;37.488;2023-12-14T00:07:11;99471.94;;;23.70;20.38
74936;BME280;63501;55.570;37.488;2023-12-14T00:09:41;99480.91;;;23.68;20.28
74936;BME280;63501;55.570;37.488;2023-12-14T00:12:08;99476.03;;;23.69;20.41
74936;BME280;63501;55.570;37.488;2023-12-14T00:14:35;99467.56;;;23.69;20.27
74936;BME280;63501;55.570;37.488;2023-12-14T00:17:01;99473.66;;;23.67;20.46
74936;BME280;63501;55.570;37.488;2023-12-14T00:19:28;99468.78;;;23.68;20.51
74936;BME280;63501;55.570;37.488;2023-12-14T00:21:55;99471.31;;;23.66;20.43
74936;BME280;63501;55.570;37.488;2023-12-14T00:24:22;99478.53;;;23.67;20.47
74936;BME280;63501;55.570;37.488;2023-12-14T00:26:50;99479.78;;;23.66;20.59
74936;BME280;63501;55.570;37.488;2023-12-14T00:29:17;99480.56;;;23.66;20.48
74936;BME280;63501;55.570;37.488;2023-12-14T00:31:44;99470.56;;;23.65;20.59
74936;BME280;63501;55.570;37.488;2023-12-14T00:34:09;99467.72;;;23.65;20.59
74936;BME280;63501;55.570;37.488;2023-12-14T00:36:36;99464.13;;;23.65;20.59
74936;BME280;63501;55.570;37.488;2023-12-14T00:39:04;99468.22;;;23.64;20.54
74936;BME280;63501;55.570;37.488;2023-12-14T00:41:30;99469.78;;;23.65;20.70
74936;BME280;63501;55.570;37.488;2023-12-14T00:43:59;99473.09;;;23.63;20.69
74936;BME280;63501;55.570;37.488;2023-12-14T00:46:25;99461.00;;;23.63;20.51
74936;BME280;63501;55.570;37.488;2023-12-14T00:48:54;99474.31;;;23.62;20.55
74936;BME280;63501;55.570;37.488;2023-12-14T00:51:21;99466.66;;;23.63;20.62
74936;BME280;63501;55.570;37.488;2023-12-14T00:53:48;99465.84;;;23.62;20.54
74936;BME280;63501;55.570;37.488;2023-12-14T00:56:15;99479.97;;;23.62;20.75
74936;BME280;63501;55.570;37.488;2023-12-14T00:58:41;99465.84;;;23.62;20.81
74936;BME280;63501;55.570;37.488;2023-12-14T01:01:10;99469.91;;;23.61;20.62
74936;BME280;63501;55.570;37.488;2023-12-14T01:03:37;99463.50;;;23.61;20.66
74936;BME280;63501;55.570;37.488;2023-12-14T01:06:04;99465.84;;;23.62;20.78
74936;BME280;63501;55.570;37.488;2023-12-14T01:08:32;99465.84;;;23.62;20.67
74936;BME280;63501;55.570;37.488;2023-12-14T01:10:58;99459.88;;;23.60;20.62
74936;BME280;63501;55.570;37.488;2023-12-14T01:13:25;99462.22;;;23.62;20.97
74936;BME280;63501;55.570;37.488;2023-12-14T01:15:52;99458.63;;;23.61;20.77
74936;BME280;63501;55.570;37.488;2023-12-14T01:18:20;99459.88;;;23.60;20.64
74936;BME280;63501;55.570;37.488;2023-12-14T01:20:47;99464.75;;;23.60;20.80
74936;BME280;63501;55.570;37.488;2023-12-14T01:23:14;99461.94;;;23.60;20.73
74936;BME280;63501;55.570;37.488;2023-12-14T01:25:41;99460.38;;;23.59;20.95
74936;BME280;63501;55.570;37.488;2023-12-14T01:28:08;99468.84;;;23.59;20.79
74936;BME280;63501;55.570;37.488;2023-12-14T01:30:35;99465.25;;;23.58;20.81
74936;BME280;63501;55.570;37.488;2023-12-14T01:33:02;99461.66;;;23.58;20.73
74936;BME280;63501;55.570;37.488;2023-12-14T01:35:30;99467.28;;;23.58;20.74
74936;BME280;63501;55.570;37.488;2023-12-14T01:37:57;99464.47;;;23.58;20.77
74936;BME280;63501;55.570;37.488;2023-12-14T01:40:23;99471.66;;;23.59;20.62
74936;BME280;63501;55.570;37.488;2023-12-14T01:42:50;99467.28;;;23.58;20.80
74936;BME280;63501;55.570;37.488;2023-12-14T01:45:17;99464.47;;;23.58;20.73
74936;BME280;63501;55.570;37.488;2023-12-14T01:47:45;99464.47;;;23.58;20.80
74936;BME280;63501;55.570;37.488;2023-12-14T01:50:12;99464.47;;;23.58;20.77
74936;BME280;63501;55.570;37.488;2023-12-14T01:52:40;99459.59;;;23.58;20.90
74936;BME280;63501;55.570;37.488;2023-12-14T01:55:07;99464.47;;;23.58;20.56
74936;BME280;63501;55.570;37.488;2023-12-14T01:57:34;99464.47;;;23.58;20.64
74936;BME280;63501;55.570;37.488;2023-12-14T02:00:01;99464.47;;;23.58;20.73
74936;BME280;63501;55.570;37.488;2023-12-14T02:02:29;99464.47;;;23.58;20.80
74936;BME280;63501;55.570;37.488;2023-12-14T02:04:56;99467.28;;;23.58;20.79
74936;BME280;63501;55.570;37.488;2023-12-14T02:07:23;99465.25;;;23.58;20.82
74936;BME280;63501;55.570;37.488;2023-12-14T02:09:51;99463.69;;;23.57;20.95
74936;BME280;63501;55.570;37.488;2023-12-14T02:12:18;99468.06;;;23.58;20.80
74936;BME280;63501;55.570;37.488;2023-12-14T02:14:44;99451.59;;;23.57;20.62
74936;BME280;63501;55.570;37.488;2023-12-14T02:17:11;99460.88;;;23.57;20.72
74936;BME280;63501;55.570;37.488;2023-12-14T02:19:38;99452.84;;;23.56;21.03
74936;BME280;63501;55.570;37.488;2023-12-14T02:22:05;99450.03;;;23.56;20.70
74936;BME280;63501;55.570;37.488;2023-12-14T02:24:33;99450.81;;;23.56;20.83
74936;BME280;63501;55.570;37.488;2023-12-14T02:26:59;99451.31;;;23.55;20.82
74936;BME280;63501;55.570;37.488;2023-12-14T02:29:26;99447.69;;;23.54;20.98
74936;BME280;63501;55.570;37.488;2023-12-14T02:31:53;99454.13;;;23.55;20.81
74936;BME280;63501;55.570;37.488;2023-12-14T02:34:20;99455.38;;;23.54;20.76
74936;BME280;63501;55.570;37.488;2023-12-14T02:36:47;99454.63;;;23.53;21.13
74936;BME280;63501;55.570;37.488;2023-12-14T02:39:13;99457.44;;;23.53;20.81
74936;BME280;63501;55.570;37.488;2023-12-14T02:41:42;99463.84;;;23.54;20.91
74936;BME280;63501;55.570;37.488;2023-12-14T02:44:08;99458.22;;;23.54;21.38
74936;BME280;63501;55.570;37.488;2023-12-14T02:46:35;99454.63;;;23.53;20.87
74936;BME280;63501;55.570;37.488;2023-12-14T02:49:02;99453.84;;;23.53;20.89
74936;BME280;63501;55.570;37.488;2023-12-14T02:51:29;99459.47;;;23.53;20.71
74936;BME280;63501;55.570;37.488;2023-12-14T02:53:56;99464.81;;;23.50;20.83
74936;BME280;63501;55.570;37.488;2023-12-14T02:56:23;99468.13;;;23.49;20.73
74936;BME280;63501;55.570;37.488;2023-12-14T02:58:51;99455.28;;;23.48;20.84
74936;BME280;63501;55.570;37.488;2023-12-14T03:01:19;99461.41;;;23.46;20.82
74936;BME280;63501;55.570;37.488;2023-12-14T03:03:47;99457.00;;;23.45;20.57
74936;BME280;63501;55.570;37.488;2023-12-14T03:06:13;99460.31;;;23.44;20.68
74936;BME280;63501;55.570;37.488;2023-12-14T03:08:40;99459.53;;;23.43;20.86
74936;BME280;63501;55.570;37.488;2023-12-14T03:11:07;99456.41;;;23.41;20.74
74936;BME280;63501;55.570;37.488;2023-12-14T03:13:34;99456.41;;;23.41;20.67
74936;BME280;63501;55.570;37.488;2023-12-14T03:16:02;99457.97;;;23.42;20.67
74936;BME280;63501;55.570;37.488;2023-12-14T03:18:30;99466.44;;;23.42;20.63
74936;BME280;63501;55.570;37.488;2023-12-14T03:20:56;99467.69;;;23.41;20.67
74936;BME280;63501;55.570;37.488;2023-12-14T03:23:23;99461.56;;;23.43;20.57
74936;BME280;63501;55.570;37.488;2023-12-14T03:25:50;99462.06;;;23.41;20.35
74936;BME280;63501;55.570;37.488;2023-12-14T03:28:17;99463.63;;;23.42;20.70
74936;BME280;63501;55.570;37.488;2023-12-14T03:30:44;99468.00;;;23.43;20.62
74936;BME280;63501;55.570;37.488;2023-12-14T03:33:12;99468.47;;;23.42;20.63
74936;BME280;63501;55.570;37.488;2023-12-14T03:35:39;99472.56;;;23.41;20.67
74936;BME280;63501;55.570;37.488;2023-12-14T03:38:07;99466.91;;;23.41;20.42
74936;BME280;63501;55.570;37.488;2023-12-14T03:40:34;99460.50;;;23.40;20.52
74936;BME280;63501;55.570;37.488;2023-12-14T03:43:01;99463.31;;;23.40;20.68
74936;BME280;63501;55.570;37.488;2023-12-14T03:45:28;99470.19;;;23.39;20.65
74936;BME280;63501;55.570;37.488;2023-12-14T03:47:55;99470.97;;;23.40;20.75
74936;BME280;63501;55.570;37.488;2023-12-14T03:50:23;99469.41;;;23.39;20.44
74936;BME280;63501;55.570;37.488;2023-12-14T03:52:50;99470.19;;;23.39;20.76
74936;BME280;63501;55.570;37.488;2023-12-14T03:55:17;99480.25;;;23.40;20.66
74936;BME280;63501;55.570;37.488;2023-12-14T03:57:44;99460.50;;;23.40;20.56
74936;BME280;63501;55.570;37.488;2023-12-14T04:00:11;99466.91;;;23.41;20.28
74936;BME280;63501;55.570;37.488;2023-12-14T04:02:39;99460.00;;;23.42;20.60
74936;BME280;63501;55.570;37.488;2023-12-14T04:05:06;99455.16;;;23.42;20.76
74936;BME280;63501;55.570;37.488;2023-12-14T04:07:34;99459.53;;;23.43;20.69
74936;BME280;63501;55.570;37.488;2023-12-14T04:10:01;99462.34;;;23.43;20.52
74936;BME280;63501;55.570;37.488;2023-12-14T04:12:29;99456.69;;;23.43;20.49
74936;BME280;63501;55.570;37.488;2023-12-14T04:14:56;99457.97;;;23.42;20.41
74936;BME280;63501;55.570;37.488;2023-12-14T04:17:23;99459.53;;;23.43;20.61
74936;BME280;63501;55.570;37.488;2023-12-14T04:19:50;99463.63;;;23.42;20.74
74936;BME280;63501;55.570;37.488;2023-12-14T04:22:16;99460.31;;;23.44;20.61
74936;BME280;63501;55.570;37.488;2023-12-14T04:24:45;99446.19;;;23.44;20.68
74936;BME280;63501;55.570;37.488;2023-12-14T04:27:11;99444.94;;;23.45;20.83
74936;BME280;63501;55.570;37.488;2023-12-14T04:29:39;99449.34;;;23.46;20.79
74936;BME280;63501;55.570;37.488;2023-12-14T04:32:06;99440.06;;;23.45;20.70
74936;BME280;63501;55.570;37.488;2023-12-14T04:34:32;99440.06;;;23.45;20.63
74936;BME280;63501;55.570;37.488;2023-12-14T04:36:59;99442.09;;;23.45;20.81
74936;BME280;63501;55.570;37.488;2023-12-14T04:39:26;99440.38;;;23.47;20.61
74936;BME280;63501;55.570;37.488;2023-12-14T04:41:54;99441.94;;;23.48;20.85
74936;BME280;63501;55.570;37.488;2023-12-14T04:44:21;99434.34;;;23.64;20.65
74936;BME280;63501;55.570;37.488;2023-12-14T04:46:48;99439.47;;;23.89;20.33
74936;BME280;63501;55.570;37.488;2023-12-14T04:49:15;99444.88;;;24.17;20.25
74936;BME280;63501;55.570;37.488;2023-12-14T04:51:42;99447.66;;;24.41;20.27
74936;BME280;63501;55.570;37.488;2023-12-14T04:54:09;99449.81;;;24.61;19.90
74936;BME280;63501;55.570;37.488;2023-12-14T04:56:36;99439.56;;;24.78;19.69
74936;BME280;63501;55.570;37.488;2023-12-14T04:59:04;99438.78;;;24.92;19.66
74936;BME280;63501;55.570;37.488;2023-12-14T05:01:31;99438.94;;;25.03;19.95
74936;BME280;63501;55.570;37.488;2023-12-14T05:03:58;99436.00;;;25.13;19.86
74936;BME280;63501;55.570;37.488;2023-12-14T05:06:25;99436.41;;;25.20;19.66
74936;BME280;63501;55.570;37.488;2023-12-14T05:08:52;99444.75;;;25.29;19.87
74936;BME280;63501;55.570;37.488;2023-12-14T05:11:19;99438.97;;;25.39;19.33
74936;BME280;63501;55.570;37.488;2023-12-14T05:13:45;99442.94;;;25.47;19.34
74936;BME280;63501;55.570;37.488;2023-12-14T05:16:14;99451.50;;;25.52;19.65
74936;BME280;63501;55.570;37.488;2023-12-14T05:18:41;99458.75;;;25.53;19.16
74936;BME280;63501;55.570;37.488;2023-12-14T05:21:08;99451.50;;;25.52;19.58
74936;BME280;63501;55.570;37.488;2023-12-14T05:23:33;99455.59;;;25.51;19.26
74936;BME280;63501;55.570;37.488;2023-12-14T05:26:00;99455.59;;;25.51;19.59
74936;BME280;63501;55.570;37.488;2023-12-14T05:28:27;99449.66;;;25.49;19.11
74936;BME280;63501;55.570;37.488;2023-12-14T05:30:54;99456.09;;;25.50;19.09
74936;BME280;63501;55.570;37.488;2023-12-14T05:33:22;99459.13;;;25.46;19.59
74936;BME280;63501;55.570;37.488;2023-12-14T05:35:49;99452.94;;;25.42;19.58
74936;BME280;63501;55.570;37.488;2023-12-14T05:38:16;99454.69;;;25.40;19.00
74936;BME280;63501;55.570;37.488;2023-12-14T05:40:43;99461.53;;;25.33;19.15
74936;BME280;63501;55.570;37.488;2023-12-14T05:43:10;99450.13;;;25.27;19.14
74936;BME280;63501;55.570;37.488;2023-12-14T05:45:37;99450.06;;;25.22;19.40
74936;BME280;63501;55.570;37.488;2023-12-14T05:48:04;99451.53;;;25.17;19.72
74936;BME280;63501;55.570;37.488;2023-12-14T05:50:33;99459.16;;;25.11;19.35
74936;BME280;63501;55.570;37.488;2023-12-14T05:53:00;99455.44;;;25.05;19.32
74936;BME280;63501;55.570;37.488;2023-12-14T05:55:26;99454.06;;;25.00;19.08
74936;BME280;63501;55.570;37.488;2023-12-14T05:57:53;99447.53;;;24.94;19.46
74936;BME280;63501;55.570;37.488;2023-12-14T06:00:21;99452.63;;;24.90;19.14
74936;BME280;63501;55.570;37.488;2023-12-14T06:02:48;99456.13;;;24.85;19.37
74936;BME280;63501;55.570;37.488;2023-12-14T06:05:15;99464.81;;;24.82;19.43
74936;BME280;63501;55.570;37.488;2023-12-14T06:07:44;99466.28;;;24.77;19.46
74936;BME280;63501;55.570;37.488;2023-12-14T06:10:10;99458.00;;;24.73;19.11
74936;BME280;63501;55.570;37.488;2023-12-14T06:12:37;99467.47;;;24.70;19.51
74936;BME280;63501;55.570;37.488;2023-12-14T06:15:05;99459.66;;;24.65;19.81
74936;BME280;63501;55.570;37.488;2023-12-14T06:17:32;99459.06;;;24.61;19.27
74936;BME280;63501;55.570;37.488;2023-12-14T06:19:59;99464.91;;;24.58;19.51
74936;BME280;63501;55.570;37.488;2023-12-14T06:22:26;99462.31;;;24.54;19.35
74936;BME280;63501;55.570;37.488;2023-12-14T06:24:54;99465.31;;;24.50;19.13
74936;BME280;63501;55.570;37.488;2023-12-14T06:27:21;99463.47;;;24.47;19.47
74936;BME280;63501;55.570;37.488;2023-12-14T06:29:51;99463.16;;;24.45;19.23
74936;BME280;63501;55.570;37.488;2023-12-14T06:32:18;99468.44;;;24.52;20.00
74936;BME280;63501;55.570;37.488;2023-12-14T06:34:45;99460.16;;;24.64;19.81
74936;BME280;63501;55.570;37.488;2023-12-14T06:37:12;99462.97;;;24.78;19.94
74936;BME280;63501;55.570;37.488;2023-12-14T06:39:40;99453.19;;;24.94;20.27
74936;BME280;63501;55.570;37.488;2023-12-14T06:42:08;99454.53;;;25.14;20.49
74936;BME280;63501;55.570;37.488;2023-12-14T06:44:37;99457.44;;;25.34;20.25
74936;BME280;63501;55.570;37.488;2023-12-14T06:47:04;99448.66;;;25.52;19.90
74936;BME280;63501;55.570;37.488;2023-12-14T06:49:31;99451.25;;;25.71;19.95
74936;BME280;63501;55.570;37.488;2023-12-14T06:51:58;99456.06;;;25.85;19.91
74936;BME280;63501;55.570;37.488;2023-12-14T06:54:27;99459.09;;;26.02;20.41
74936;BME280;63501;55.570;37.488;2023-12-14T06:56:54;99453.13;;;26.20;20.02
74936;BME280;63501;55.570;37.488;2023-12-14T06:59:22;99448.97;;;26.42;19.92
74936;BME280;63501;55.570;37.488;2023-12-14T07:01:49;99453.25;;;26.57;19.51
74936;BME280;63501;55.570;37.488;2023-12-14T07:04:17;99451.09;;;26.73;20.05
74936;BME280;63501;55.570;37.488;2023-12-14T07:06:49;99451.66;;;26.82;19.74
74936;BME280;63501;55.570;37.488;2023-12-14T07:09:16;99461.03;;;26.88;19.69
74936;BME280;63501;55.570;37.488;2023-12-14T07:11:43;99460.50;;;26.90;19.88
74936;BME280;63501;55.570;37.488;2023-12-14T07:14:10;99472.13;;;26.92;19.54
74936;BME280;63501;55.570;37.488;2023-12-14T07:16:38;99466.75;;;26.94;19.53
74936;BME280;63501;55.570;37.488;2023-12-14T07:19:05;99471.66;;;26.99;19.69
74936;BME280;63501;55.570;37.488;2023-12-14T07:21:31;99468.88;;;27.05;19.49
74936;BME280;63501;55.570;37.488;2023-12-14T07:23:57;99476.19;;;27.11;19.38
74936;BME280;63501;55.570;37.488;2023-12-14T07:26:25;99472.63;;;27.17;19.61
74936;BME280;63501;55.570;37.488;2023-12-14T07:31:19;99480.66;;;27.24;19.36
74936;BME280;63501;55.570;37.488;2023-12-14T07:33:47;99479.09;;;27.23;19.46
74936;BME280;63501;55.570;37.488;2023-12-14T07:36:14;99473.66;;;27.19;19.77
74936;BME280;63501;55.570;37.488;2023-12-14T07:38:41;99479.28;;;27.13;19.71
74936;BME280;63501;55.570;37.488;2023-12-14T07:41:08;99491.56;;;27.05;19.81
74936;BME280;63501;55.570;37.488;2023-12-14T07:43:35;99473.69;;;26.93;19.91
74936;BME280;63501;55.570;37.488;2023-12-14T07:46:02;99482.38;;;26.84;20.04
74936;BME280;63501;55.570;37.488;2023-12-14T07:48:28;99475.06;;;26.72;19.67
74936;BME280;63501;55.570;37.488;2023-12-14T07:50:57;99474.97;;;26.60;20.06
74936;BME280;63501;55.570;37.488;2023-12-14T07:53:23;99475.63;;;26.50;20.03
74936;BME280;63501;55.570;37.488;2023-12-14T07:55:51;99467.75;;;26.39;19.78
74936;BME280;63501;55.570;37.488;2023-12-14T07:58:18;99469.69;;;26.27;20.16
74936;BME280;63501;55.570;37.488;2023-12-14T08:00:46;99478.09;;;26.16;20.12
74936;BME280;63501;55.570;37.488;2023-12-14T08:03:14;99474.81;;;26.03;20.03
74936;BME280;63501;55.570;37.488;2023-12-14T08:05:40;99475.97;;;25.91;20.08
74936;BME280;63501;55.570;37.488;2023-12-14T08:08:09;99480.72;;;25.79;19.97
74936;BME280;63501;55.570;37.488;2023-12-14T08:10:35;99495.19;;;25.66;20.07
74936;BME280;63501;55.570;37.488;2023-12-14T08:13:02;99494.53;;;25.56;20.74
74936;BME280;63501;55.570;37.488;2023-12-14T08:15:29;99491.13;;;25.52;20.80
74936;BME280;63501;55.570;37.488;2023-12-14T08:17:56;99493.00;;;25.55;20.47
74936;BME280;63501;55.570;37.488;2023-12-14T08:20:23;99488.19;;;25.62;20.47
74936;BME280;63501;55.570;37.488;2023-12-14T08:22:50;99493.72;;;25.71;20.59
74936;BME280;63501;55.570;37.488;2023-12-14T08:25:19;99497.72;;;25.79;20.64
74936;BME280;63501;55.570;37.488;2023-12-14T08:27:45;99493.97;;;25.88;20.99
74936;BME280;63501;55.570;37.488;2023-12-14T08:30:12;99500.25;;;25.97;20.84
74936;BME280;63501;55.570;37.488;2023-12-14T08:32:40;99504.56;;;26.13;20.86
74936;BME280;63501;55.570;37.488;2023-12-14T08:35:07;99494.69;;;26.29;20.60
74936;BME280;63501;55.570;37.488;2023-12-14T08:37:35;99496.97;;;26.45;20.45
74936;BME280;63501;55.570;37.488;2023-12-14T08:40:01;99491.69;;;26.58;20.60
74936;BME280;63501;55.570;37.488;2023-12-14T08:42:30;99494.91;;;26.72;20.52
74936;BME280;63501;55.570;37.488;2023-12-14T08:44:57;99493.94;;;26.80;20.54
74936;BME280;63501;55.570;37.488;2023-12-14T08:47:24;99476.97;;;26.86;20.60
74936;BME280;63501;55.570;37.488;2023-12-14T08:49:51;99478.81;;;26.89;20.51
74936;BME280;63501;55.570;37.488;2023-12-14T08:52:18;99479.34;;;26.93;20.47
74936;BME280;63501;55.570;37.488;2023-12-14T08:54:45;99476.28;;;26.97;20.49
74936;BME280;63501;55.570;37.488;2023-12-14T08:57:12;99470.09;;;26.98;20.51
74936;BME280;63501;55.570;37.488;2023-12-14T08:59:40;99460.03;;;26.97;20.77
74936;BME280;63501;55.570;37.488;2023-12-14T09:02:07;99457.44;;;26.94;20.67
74936;BME280;63501;55.570;37.488;2023-12-14T09:04:34;99464.91;;;26.91;20.96
74936;BME280;63501;55.570;37.488;2023-12-14T09:07:01;99457.63;;;26.84;20.87
74936;BME280;63501;55.570;37.488;2023-12-14T09:09:30;99463.25;;;26.79;20.97
74936;BME280;63501;55.570;37.488;2023-12-14T09:11:57;99465.31;;;26.78;21.17
74936;BME280;63501;55.570;37.488;2023-12-14T09:14:24;99458.63;;;26.81;21.01
74936;BME280;63501;55.570;37.488;2023-12-14T09:16:53;99471.03;;;26.84;21.07
74936;BME280;63501;55.570;37.488;2023-12-14T09:19:20;99473.38;;;26.85;21.21
74936;BME280;63501;55.570;37.488;2023-12-14T09:21:47;99482.66;;;26.86;21.10
74936;BME280;63501;55.570;37.488;2023-12-14T09:24:13;99489.63;;;26.85;21.10
74936;BME280;63501;55.570;37.488;2023-12-14T09:26:40;99485.50;;;26.86;21.22
74936;BME280;63501;55.570;37.488;2023-12-14T09:29:07;99489.41;;;26.88;21.30
74936;BME280;63501;55.570;37.488;2023-12-14T09:31:34;99477.81;;;26.92;21.25
74936;BME280;63501;55.570;37.488;2023-12-14T09:34:03;99480.13;;;26.94;21.37
74936;BME280;63501;55.570;37.488;2023-12-14T09:36:29;99486.59;;;26.94;21.30
74936;BME280;63501;55.570;37.488;2023-12-14T09:38:56;99487.84;;;26.93;21.36
74936;BME280;63501;55.570;37.488;2023-12-14T09:41:23;99490.44;;;26.91;21.35
74936;BME280;63501;55.570;37.488;2023-12-14T09:43:50;99493.28;;;26.91;21.31
74936;BME280;63501;55.570;37.488;2023-12-14T09:46:18;99488.38;;;26.92;21.25
74936;BME280;63501;55.570;37.488;2023-12-14T09:48:45;99494.03;;;26.92;21.42
74936;BME280;63501;55.570;37.488;2023-12-14T09:51:14;99489.44;;;26.94;21.35
74936;BME280;63501;55.570;37.488;2023-12-14T09:53:40;99478.63;;;26.98;21.32
74936;BME280;63501;55.570;37.488;2023-12-14T09:56:07;99475.31;;;27.00;21.25
74936;BME280;63501;55.570;37.488;2023-12-14T09:58:34;99471.94;;;27.01;21.41
74936;BME280;63501;55.570;37.488;2023-12-14T10:01:02;99474.09;;;27.06;21.45
74936;BME280;63501;55.570;37.488;2023-12-14T10:03:29;99471.31;;;27.18;21.20
74936;BME280;63501;55.570;37.488;2023-12-14T10:05:58;99471.88;;;27.27;21.16
74936;BME280;63501;55.570;37.488;2023-12-14T10:08:28;99463.91;;;27.31;21.16
74936;BME280;63501;55.570;37.488;2023-12-14T10:10:55;99470.94;;;27.36;21.07
74936;BME280;63501;55.570;37.488;2023-12-14T10:13:22;99463.44;;;27.38;21.16
74936;BME280;63501;55.570;37.488;2023-12-14T10:15:55;99454.44;;;27.40;21.25
74936;BME280;63501;55.570;37.488;2023-12-14T10:18:22;99458.56;;;27.39;20.91
74936;BME280;63501;55.570;37.488;2023-12-14T10:20:50;99451.06;;;27.36;21.13
74936;BME280;63501;55.570;37.488;2023-12-14T10:23:17;99459.00;;;27.32;21.20
74936;BME280;63501;55.570;37.488;2023-12-14T10:25:45;99462.38;;;27.30;21.27
74936;BME280;63501;55.570;37.488;2023-12-14T10:28:12;99465.72;;;27.29;21.21
74936;BME280;63501;55.570;37.488;2023-12-14T10:30:40;99464.19;;;27.28;21.43
74936;BME280;63501;55.570;37.488;2023-12-14T10:33:06;99445.84;;;27.29;21.35
74936;BME280;63501;55.570;37.488;2023-12-14T10:35:34;99453.09;;;27.30;21.36
74936;BME280;63501;55.570;37.488;2023-12-14T10:38:02;99448.19;;;27.30;21.12
74936;BME280;63501;55.570;37.488;2023-12-14T10:40:30;99438.13;;;27.29;21.29
74936;BME280;63501;55.570;37.488;2023-12-14T10:42:59;99430.88;;;27.28;21.23
74936;BME280;63501;55.570;37.488;2023-12-14T10:45:26;99439.13;;;27.26;21.28
74936;BME280;63501;55.570;37.488;2023-12-14T10:47:55;99430.34;;;27.24;21.26
74936;BME280;63501;55.570;37.488;2023-12-14T10:50:24;99425.66;;;27.21;21.30
74936;BME280;63501;55.570;37.488;2023-12-14T10:52:52;99428.25;;;27.19;21.32
74936;BME280;63501;55.570;37.488;2023-12-14T10:55:21;99419.47;;;27.17;21.44
74936;BME280;63501;55.570;37.488;2023-12-14T10:57:51;99411.22;;;27.19;21.38
74936;BME280;63501;55.570;37.488;2023-12-14T11:00:19;99422.59;;;27.25;21.22
74936;BME280;63501;55.570;37.488;2023-12-14T11:02:46;99403.53;;;27.31;21.20
74936;BME280;63501;55.570;37.488;2023-12-14T11:05:13;99411.56;;;27.38;21.41
74936;BME280;63501;55.570;37.488;2023-12-14T11:07:45;99414.69;;;27.40;21.38
74936;BME280;63501;55.570;37.488;2023-12-14T11:10:12;99412.09;;;27.42;21.28
74936;BME280;63501;55.570;37.488;2023-12-14T11:12:49;99414.44;;;27.43;21.18
74936;BME280;63501;55.570;37.488;2023-12-14T11:15:18;99428.41;;;27.47;21.27
74936;BME280;63501;55.570;37.488;2023-12-14T11:20:27;99422.22;;;27.54;21.21
74936;BME280;63501;55.570;37.488;2023-12-14T11:22:55;99423.31;;;27.62;21.28
74936;BME280;63501;55.570;37.488;2023-12-14T11:25:23;99429.31;;;27.76;21.25
74936;BME280;63501;55.570;37.488;2023-12-14T11:27:50;99429.59;;;27.83;21.19
74936;BME280;63501;55.570;37.488;2023-12-14T11:30:18;99422.91;;;27.86;21.06
74936;BME280;63501;55.570;37.488;2023-12-14T11:32:46;99403.78;;;27.87;21.07
74936;BME280;63501;55.570;37.488;2023-12-14T11:35:13;99406.13;;;27.94;21.01
74936;BME280;63501;55.570;37.488;2023-12-14T11:37:40;99397.16;;;28.12;20.67
74936;BME280;63501;55.570;37.488;2023-12-14T11:40:07;99401.06;;;28.32;20.66
74936;BME280;63501;55.570;37.488;2023-12-14T11:42:35;99392.53;;;28.32;20.56
74936;BME280;63501;55.570;37.488;2023-12-14T11:45:01;99402.41;;;28.53;20.41
74936;BME280;63501;55.570;37.488;2023-12-14T11:47:30;99407.84;;;28.62;20.45
74936;BME280;63501;55.570;37.488;2023-12-14T11:49:57;99404.19;;;28.67;20.18
74936;BME280;63501;55.570;37.488;2023-12-14T11:52:24;99406.53;;;28.75;20.32
74936;BME280;63501;55.570;37.488;2023-12-14T11:54:51;99416.38;;;28.79;20.10
74936;BME280;63501;55.570;37.488;2023-12-14T11:57:18;99418.94;;;28.83;20.10
74936;BME280;63501;55.570;37.488;2023-12-14T11:59:45;99422.06;;;28.85;19.92
74936;BME280;63501;55.570;37.488;2023-12-14T12:02:11;99434.22;;;28.85;20.01
74936;BME280;63501;55.570;37.488;2023-12-14T12:04:40;99419.72;;;28.83;20.07
74936;BME280;63501;55.570;37.488;2023-12-14T12:07:16;99425.41;;;28.78;20.07
74936;BME280;63501;55.570;37.488;2023-12-14T12:09:43;99430.31;;;28.71;20.21
74936;BME280;63501;55.570;37.488;2023-12-14T12:12:10;99427.75;;;28.68;20.28
74936;BME280;63501;55.570;37.488;2023-12-14T12:14:37;99428.00;;;28.64;20.01
74936;BME280;63501;55.570;37.488;2023-12-14T12:17:05;99424.63;;;28.60;20.16
74936;BME280;63501;55.570;37.488;2023-12-14T12:19:32;99418.41;;;28.56;20.20
74936;BME280;63501;55.570;37.488;2023-12-14T12:22:01;99419.22;;;28.51;20.21
74936;BME280;63501;55.570;37.488;2023-12-14T12:24:28;99413.22;;;28.38;20.30
74936;BME280;63501;55.570;37.488;2023-12-14T12:26:55;99423.84;;;28.43;20.08
74936;BME280;63501;55.570;37.488;2023-12-14T12:29:22;99420.75;;;28.41;20.03
74936;BME280;63501;55.570;37.488;2023-12-14T12:31:49;99429.28;;;28.35;20.05
74936;BME280;63501;55.570;37.488;2023-12-14T12:34:17;99420.94;;;28.26;19.99
74936;BME280;63501;55.570;37.488;2023-12-14T12:36:43;99420.69;;;28.18;20.20
74936;BME280;63501;55.570;37.488;2023-12-14T12:39:12;99414.69;;;28.11;20.02
74936;BME280;63501;55.570;37.488;2023-12-14T12:41:39;99399.94;;;27.90;20.22
74936;BME280;63501;55.570;37.488;2023-12-14T12:44:05;99420.63;;;27.96;20.07
74936;BME280;63501;55.570;37.488;2023-12-14T12:46:33;99424.22;;;27.91;20.02
74936;BME280;63501;55.570;37.488;2023-12-14T12:49:00;99425.78;;;27.92;20.10
74936;BME280;63501;55.570;37.488;2023-12-14T12:51:28;99419.06;;;27.89;20.06
74936;BME280;63501;55.570;37.488;2023-12-14T12:53:55;99424.72;;;27.84;20.21
74936;BME280;63501;55.570;37.488;2023-12-14T12:56:24;99430.63;;;27.75;20.12